createdAt,value
2023-04-11T00:01:49.623Z,11.16
2023-04-11T00:04:17.671Z,10.96
2023-04-11T00:06:45.144Z,11.01
2023-04-11T00:09:12.620Z,11.03
2023-04-11T00:11:39.907Z,10.99
2023-04-11T00:14:07.559Z,10.88
2023-04-11T00:16:35.845Z,10.96
2023-04-11T00:19:03.300Z,10.92
2023-04-11T00:21:30.565Z,11.03
2023-04-11T00:23:57.829Z,11.03
2023-04-11T00:26:26.053Z,10.84
2023-04-11T00:28:53.573Z,10.82
2023-04-11T00:31:21.168Z,10.80
2023-04-11T00:33:48.526Z,10.86
2023-04-11T00:36:16.341Z,10.83
2023-04-11T00:38:44.716Z,10.64
2023-04-11T00:41:12.214Z,10.74
2023-04-11T00:43:39.519Z,10.67
2023-04-11T00:46:09.167Z,10.71
2023-04-11T00:48:36.934Z,10.75
2023-04-11T00:51:04.334Z,10.68
2023-04-11T00:53:32.913Z,10.62
2023-04-11T00:56:00.617Z,10.52
2023-04-11T00:58:28.573Z,10.50
2023-04-11T01:00:56.000Z,10.48
2023-04-11T01:03:23.822Z,10.48
2023-04-11T01:05:53.778Z,10.43
2023-04-11T01:08:22.519Z,10.46
2023-04-11T01:10:50.529Z,10.54
2023-04-11T01:13:20.668Z,10.47
2023-04-11T01:15:48.182Z,10.55
2023-04-11T01:18:15.675Z,10.55
2023-04-11T01:20:43.128Z,10.46
2023-04-11T01:23:11.007Z,10.43
2023-04-11T01:25:38.415Z,10.49
2023-04-11T01:28:06.537Z,10.64
2023-04-11T01:30:33.869Z,10.73
2023-04-11T01:33:01.346Z,10.58
2023-04-11T01:35:28.806Z,10.71
2023-04-11T01:37:56.620Z,10.80
2023-04-11T01:40:24.542Z,10.84
2023-04-11T01:42:52.892Z,10.89
2023-04-11T01:45:22.383Z,10.89
2023-04-11T01:47:51.884Z,10.79
2023-04-11T01:50:19.249Z,10.57
2023-04-11T01:52:48.350Z,10.58
2023-04-11T01:55:16.237Z,10.45
2023-04-11T01:57:43.796Z,10.45
2023-04-11T02:00:11.712Z,10.51
2023-04-11T02:02:42.015Z,10.33
2023-04-11T02:05:11.075Z,10.37
2023-04-11T02:07:38.447Z,10.45
2023-04-11T02:10:06.581Z,10.47
2023-04-11T02:12:33.939Z,10.57
2023-04-11T02:15:01.352Z,10.47
2023-04-11T02:17:31.354Z,10.54
2023-04-11T02:19:58.869Z,10.58
2023-04-11T02:22:26.214Z,10.55
2023-04-11T02:24:53.585Z,10.55
2023-04-11T02:27:20.949Z,10.66
2023-04-11T02:29:48.303Z,10.56
2023-04-11T02:32:16.632Z,10.62
2023-04-11T02:34:46.595Z,10.43
2023-04-11T02:37:13.949Z,10.55
2023-04-11T02:39:41.294Z,10.33
2023-04-11T02:42:08.858Z,10.40
2023-04-11T02:44:36.239Z,10.51
2023-04-11T02:47:04.678Z,10.44
2023-04-11T02:49:32.378Z,10.38
2023-04-11T02:52:00.614Z,10.23
2023-04-11T02:54:28.139Z,10.15
2023-04-11T02:56:56.730Z,10.24
2023-04-11T02:59:24.440Z,10.05
2023-04-11T03:01:58.190Z,10.06
2023-04-11T03:04:26.577Z,10.12
2023-04-11T03:07:01.700Z,10.09
2023-04-11T03:09:29.914Z,9.97
2023-04-11T03:11:57.536Z,10.07
2023-04-11T03:14:24.998Z,10.08
2023-04-11T03:16:52.334Z,10.04
2023-04-11T03:19:19.721Z,10.05
2023-04-11T03:21:47.088Z,10.10
2023-04-11T03:24:14.461Z,10.20
2023-04-11T03:26:42.795Z,10.25
2023-04-11T03:29:13.974Z,10.27
2023-04-11T03:31:54.786Z,10.27
2023-04-11T03:34:23.511Z,10.36
2023-04-11T03:36:51.358Z,10.30
2023-04-11T03:39:21.734Z,10.29
2023-04-11T03:41:51.140Z,10.28
2023-04-11T03:44:19.467Z,10.32
2023-04-11T03:46:47.871Z,10.43
2023-04-11T03:49:15.387Z,10.15
2023-04-11T03:51:44.530Z,10.14
2023-04-11T03:54:11.813Z,10.26
2023-04-11T03:56:41.507Z,10.27
2023-04-11T03:59:15.792Z,10.28
2023-04-11T04:01:54.442Z,10.33
2023-04-11T04:04:22.026Z,10.39
2023-04-11T04:06:57.587Z,10.18
2023-04-11T04:09:32.394Z,10.07
2023-04-11T04:11:59.750Z,10.08
2023-04-11T04:14:39.119Z,10.08
2023-04-11T04:17:07.020Z,10.10
2023-04-11T04:19:34.320Z,10.08
2023-04-11T04:22:02.269Z,10.06
2023-04-11T04:24:38.382Z,10.13
2023-04-11T04:27:18.171Z,10.08
2023-04-11T04:29:48.574Z,10.11
2023-04-11T04:32:24.963Z,10.10
2023-04-11T04:34:58.834Z,10.14
2023-04-11T04:37:29.334Z,10.17
2023-04-11T04:40:15.970Z,10.13
2023-04-11T04:43:19.242Z,9.98
2023-04-11T04:45:56.601Z,9.75
2023-04-11T04:48:29.083Z,9.75
2023-04-11T04:50:56.407Z,9.84
2023-04-11T04:53:23.811Z,9.87
2023-04-11T04:55:56.396Z,9.98
2023-04-11T04:58:24.804Z,10.03
2023-04-11T05:00:56.190Z,10.00
2023-04-11T05:03:28.013Z,10.00
2023-04-11T05:05:56.804Z,9.99
2023-04-11T05:08:26.151Z,10.04
2023-04-11T05:10:56.527Z,10.00
2023-04-11T05:13:24.252Z,9.93
2023-04-11T05:15:51.560Z,9.89
2023-04-11T05:18:19.582Z,10.02
2023-04-11T05:20:46.963Z,10.14
2023-04-11T05:23:21.153Z,10.18
2023-04-11T05:25:50.417Z,10.21
2023-04-11T05:28:17.823Z,10.24
2023-04-11T05:30:45.736Z,10.24
2023-04-11T05:33:15.093Z,10.24
2023-04-11T05:35:44.107Z,10.16
2023-04-11T05:38:11.657Z,10.31
2023-04-11T05:40:40.343Z,10.44
2023-04-11T05:43:08.572Z,10.38
2023-04-11T05:45:35.957Z,10.37
2023-04-11T05:48:07.988Z,10.33
2023-04-11T05:50:36.062Z,10.37
2023-04-11T05:53:03.441Z,10.54
2023-04-11T05:55:30.762Z,10.56
2023-04-11T05:57:58.038Z,10.66
2023-04-11T06:00:26.184Z,10.73
2023-04-11T06:02:54.976Z,10.78
2023-04-11T06:05:22.396Z,10.86
2023-04-11T06:07:51.015Z,11.10
2023-04-11T06:10:18.328Z,11.21
2023-04-11T06:12:45.788Z,11.37
2023-04-11T06:15:13.934Z,11.44
2023-04-11T06:17:41.306Z,11.36
2023-04-11T06:20:10.303Z,11.39
2023-04-11T06:22:39.988Z,11.51
2023-04-11T06:25:07.939Z,11.55
2023-04-11T06:27:35.354Z,11.71
2023-04-11T06:30:02.681Z,11.73
2023-04-11T06:32:30.128Z,11.78
2023-04-11T06:34:57.486Z,11.86
2023-04-11T06:37:24.772Z,11.89
2023-04-11T06:39:52.057Z,11.86
2023-04-11T06:42:19.388Z,11.94
2023-04-11T06:44:46.756Z,12.15
2023-04-11T06:47:14.064Z,12.46
2023-04-11T06:49:41.403Z,12.80
2023-04-11T06:52:08.693Z,13.23
2023-04-11T06:54:36.200Z,13.39
2023-04-11T06:57:03.688Z,13.52
2023-04-11T06:59:31.129Z,13.71
2023-04-11T07:01:59.679Z,13.57
2023-04-11T07:04:27.361Z,13.49
2023-04-11T07:06:54.719Z,13.57
2023-04-11T07:09:22.508Z,13.57
2023-04-11T07:11:49.983Z,13.87
2023-04-11T07:14:17.332Z,13.90
2023-04-11T07:16:44.778Z,14.04
2023-04-11T07:19:12.218Z,14.17
2023-04-11T07:21:39.938Z,14.32
2023-04-11T07:24:07.684Z,14.30
2023-04-11T07:26:38.493Z,14.37
2023-04-11T07:29:07.123Z,14.78
2023-04-11T07:31:37.378Z,14.95
2023-04-11T07:34:04.750Z,14.93
2023-04-11T07:36:32.275Z,15.11
2023-04-11T07:39:00.205Z,15.08
2023-04-11T07:41:27.561Z,15.61
2023-04-11T07:43:55.190Z,15.64
2023-04-11T07:46:22.675Z,15.74
2023-04-11T07:48:49.987Z,15.74
2023-04-11T07:51:17.725Z,16.07
2023-04-11T07:53:45.245Z,16.00
2023-04-11T07:56:12.646Z,15.88
2023-04-11T07:58:40.031Z,16.27
2023-04-11T08:01:19.092Z,16.56
2023-04-11T08:03:46.615Z,17.78
2023-04-11T08:06:14.351Z,18.59
2023-04-11T08:08:41.668Z,18.77
2023-04-11T08:11:09.061Z,19.08
2023-04-11T08:13:36.613Z,18.74
2023-04-11T08:16:06.576Z,18.74
2023-04-11T08:18:35.254Z,18.25
2023-04-11T08:21:02.795Z,17.85
2023-04-11T08:23:30.219Z,18.20
2023-04-11T08:25:57.592Z,18.61
2023-04-11T08:28:24.933Z,18.71
2023-04-11T08:30:58.514Z,19.31
2023-04-11T08:33:26.181Z,18.75
2023-04-11T08:35:53.863Z,17.92
2023-04-11T08:38:21.442Z,17.67
2023-04-11T08:40:48.758Z,17.58
2023-04-11T08:43:16.587Z,17.61
2023-04-11T08:45:43.968Z,17.69
2023-04-11T08:48:12.547Z,17.62
2023-04-11T08:50:44.004Z,17.80
2023-04-11T08:53:22.132Z,17.85
2023-04-11T08:55:49.611Z,17.82
2023-04-11T08:58:18.056Z,18.01
2023-04-11T09:00:45.858Z,18.22
2023-04-11T09:03:16.544Z,18.45
2023-04-11T09:05:45.340Z,18.34
2023-04-11T09:08:15.443Z,18.30
2023-04-11T09:10:46.344Z,18.54
2023-04-11T09:13:25.685Z,19.01
2023-04-11T09:16:13.042Z,19.63
2023-04-11T09:18:46.633Z,19.58
2023-04-11T09:21:19.429Z,19.12
2023-04-11T09:23:46.919Z,18.70
2023-04-11T09:26:26.445Z,18.79
2023-04-11T09:28:54.097Z,18.58
2023-04-11T09:31:22.139Z,18.40
2023-04-11T09:33:58.527Z,18.25
2023-04-11T09:36:29.503Z,18.18
2023-04-11T09:38:57.915Z,18.24
2023-04-11T09:41:36.252Z,18.27
2023-04-11T09:44:03.897Z,18.11
2023-04-11T09:46:31.596Z,18.32
2023-04-11T09:49:01.806Z,18.35
2023-04-11T09:51:36.454Z,18.34
2023-04-11T09:54:06.044Z,18.08
2023-04-11T09:56:34.900Z,18.09
2023-04-11T09:59:04.316Z,18.19
2023-04-11T10:01:32.893Z,18.04
2023-04-11T10:04:01.486Z,18.25
2023-04-11T10:06:52.225Z,18.57
2023-04-11T10:09:20.200Z,18.67
2023-04-11T10:11:47.729Z,18.37
2023-04-11T10:14:36.690Z,18.38
2023-04-11T10:17:18.658Z,18.56
2023-04-11T10:19:49.519Z,18.44
2023-04-11T10:22:41.913Z,18.57
2023-04-11T10:25:15.739Z,18.47
2023-04-11T10:27:53.650Z,18.65
2023-04-11T10:30:39.617Z,18.80
2023-04-11T10:33:14.623Z,18.51
2023-04-11T10:36:06.590Z,18.73
2023-04-11T10:38:37.007Z,18.62
2023-04-11T10:41:17.484Z,18.36
2023-04-11T10:43:46.125Z,18.53
2023-04-11T10:46:17.143Z,18.48
2023-04-11T10:49:02.141Z,18.56
2023-04-11T10:51:31.546Z,18.80
2023-04-11T10:54:00.454Z,18.66
2023-04-11T10:56:40.290Z,18.78
2023-04-11T10:59:10.065Z,18.79
2023-04-11T11:04:11.075Z,18.61
2023-04-11T11:06:47.395Z,18.83
2023-04-11T11:09:28.403Z,18.81
2023-04-11T11:12:09.977Z,18.90
2023-04-11T11:14:38.057Z,18.78
2023-04-11T11:17:06.786Z,18.75
2023-04-11T11:19:35.802Z,18.64
2023-04-11T11:22:04.675Z,18.67
2023-04-11T11:24:32.696Z,18.74
2023-04-11T11:27:00.556Z,19.04
2023-04-11T11:29:33.928Z,19.11
2023-04-11T11:32:04.173Z,19.08
2023-04-11T11:34:33.529Z,19.07
2023-04-11T11:37:05.930Z,19.10
2023-04-11T11:39:34.480Z,19.17
2023-04-11T11:42:02.355Z,19.01
2023-04-11T11:44:31.371Z,19.14
2023-04-11T11:47:15.229Z,18.70
2023-04-11T11:49:52.820Z,18.88
2023-04-11T11:52:41.299Z,18.77
2023-04-11T11:55:28.672Z,18.80
2023-04-11T11:58:00.908Z,18.86
2023-04-11T12:00:30.515Z,19.16
2023-04-11T12:02:59.765Z,18.99
2023-04-11T12:05:32.955Z,19.14
2023-04-11T12:08:04.040Z,18.94
2023-04-11T12:10:43.030Z,18.81
2023-04-11T12:13:19.576Z,18.65
2023-04-11T12:15:57.863Z,18.72
2023-04-11T12:18:27.775Z,18.90
2023-04-11T12:20:55.636Z,19.09
2023-04-11T12:23:23.407Z,19.05
2023-04-11T12:25:51.101Z,18.87
2023-04-11T12:28:18.757Z,18.86
2023-04-11T12:30:46.221Z,18.84
2023-04-11T12:33:14.039Z,18.96
2023-04-11T12:35:41.653Z,18.97
2023-04-11T12:38:09.844Z,18.83
2023-04-11T12:40:38.621Z,18.99
2023-04-11T12:43:07.201Z,18.92
2023-04-11T12:45:34.610Z,18.95
2023-04-11T12:48:02.237Z,18.98
2023-04-11T12:50:29.671Z,18.99
2023-04-11T12:52:57.108Z,19.14
2023-04-11T12:55:24.797Z,19.23
2023-04-11T12:57:52.224Z,19.38
2023-04-11T13:00:19.875Z,19.28
2023-04-11T13:02:48.749Z,19.29
2023-04-11T13:05:17.121Z,19.25
2023-04-11T13:07:46.243Z,19.49
2023-04-11T13:10:16.197Z,19.50
2023-04-11T13:12:44.982Z,19.56
2023-04-11T13:15:14.495Z,19.43
2023-04-11T13:17:42.458Z,19.31
2023-04-11T13:20:11.171Z,19.25
2023-04-11T13:22:42.980Z,19.35
2023-04-11T13:25:11.070Z,19.20
2023-04-11T13:27:40.129Z,19.22
2023-04-11T13:30:09.887Z,19.20
2023-04-11T13:32:37.473Z,19.29
2023-04-11T13:35:05.908Z,19.33
2023-04-11T13:37:33.403Z,19.38
2023-04-11T13:40:01.124Z,19.26
2023-04-11T13:42:28.525Z,19.43
2023-04-11T13:44:55.847Z,19.40
2023-04-11T13:47:23.398Z,19.46
2023-04-11T13:49:50.887Z,19.52
2023-04-11T13:52:18.536Z,19.35
2023-04-11T13:54:46.018Z,19.35
2023-04-11T13:57:13.591Z,19.21
2023-04-11T13:59:41.140Z,19.28
2023-04-11T14:02:08.604Z,19.34
2023-04-11T14:04:36.427Z,19.47
2023-04-11T14:07:03.916Z,19.66
2023-04-11T14:09:31.504Z,19.69
2023-04-11T14:11:58.855Z,19.78
2023-04-11T14:14:26.362Z,19.61
2023-04-11T14:16:54.993Z,19.53
2023-04-11T14:19:24.822Z,19.44
2023-04-11T14:21:52.291Z,19.43
2023-04-11T14:24:22.153Z,19.39
2023-04-11T14:26:50.324Z,19.58
2023-04-11T14:29:19.075Z,19.30
2023-04-11T14:31:47.448Z,19.24
2023-04-11T14:34:14.971Z,19.17
2023-04-11T14:36:42.357Z,19.18
2023-04-11T14:39:09.906Z,19.12
2023-04-11T14:41:37.305Z,19.14
2023-04-11T14:44:04.818Z,19.23
2023-04-11T14:46:32.358Z,18.98
2023-04-11T14:48:59.911Z,19.12
2023-04-11T14:51:29.072Z,19.19
2023-04-11T14:53:56.813Z,19.07
2023-04-11T14:56:25.551Z,19.07
2023-04-11T14:58:53.095Z,18.98
2023-04-11T15:01:20.629Z,19.09
2023-04-11T15:03:48.954Z,19.37
2023-04-11T15:06:16.438Z,19.29
2023-04-11T15:08:43.880Z,19.28
2023-04-11T15:11:11.432Z,19.12
2023-04-11T15:13:39.017Z,19.03
2023-04-11T15:16:06.811Z,19.10
2023-04-11T15:18:35.127Z,19.18
2023-04-11T15:21:03.446Z,19.14
2023-04-11T15:23:31.184Z,19.15
2023-04-11T15:26:01.150Z,18.96
2023-04-11T15:28:34.271Z,19.06
2023-04-11T15:31:02.669Z,18.90
2023-04-11T15:33:31.769Z,18.79
2023-04-11T15:36:00.687Z,18.86
2023-04-11T15:38:28.965Z,18.79
2023-04-11T15:40:58.578Z,18.90
2023-04-11T15:43:26.454Z,18.82
2023-04-11T15:45:54.566Z,18.77
2023-04-11T15:48:22.055Z,18.84
2023-04-11T15:50:50.816Z,18.84
2023-04-11T15:53:18.312Z,18.92
2023-04-11T15:55:47.567Z,19.06
2023-04-11T15:58:15.816Z,18.92
2023-04-11T16:00:43.734Z,18.95
2023-04-11T16:03:11.338Z,18.92
2023-04-11T16:05:41.371Z,18.85
2023-04-11T16:08:08.895Z,18.72
2023-04-11T16:10:36.557Z,18.71
2023-04-11T16:13:03.962Z,18.73
2023-04-11T16:15:32.029Z,18.95
2023-04-11T16:17:59.409Z,18.87
2023-04-11T16:20:27.020Z,18.98
2023-04-11T16:22:54.463Z,19.04
2023-04-11T16:25:21.940Z,18.81
2023-04-11T16:27:51.105Z,18.91
2023-04-11T16:30:19.263Z,18.72
2023-04-11T16:32:46.881Z,18.72
2023-04-11T16:35:14.368Z,18.72
2023-04-11T16:37:41.740Z,18.58
2023-04-11T16:40:12.675Z,18.58
2023-04-11T16:42:40.454Z,18.50
2023-04-11T16:45:09.856Z,18.56
2023-04-11T16:47:37.852Z,18.65
2023-04-11T16:50:05.995Z,18.64
2023-04-11T16:52:33.894Z,18.63
2023-04-11T16:55:02.953Z,18.68
2023-04-11T16:57:33.187Z,18.69
2023-04-11T17:00:01.073Z,18.65
2023-04-11T17:02:29.640Z,18.67
2023-04-11T17:04:57.202Z,18.44
2023-04-11T17:07:25.017Z,18.42
2023-04-11T17:09:52.513Z,18.52
2023-04-11T17:12:19.949Z,18.51
2023-04-11T17:14:47.650Z,18.40
2023-04-11T17:17:15.154Z,18.34
2023-04-11T17:19:42.812Z,18.25
2023-04-11T17:22:11.704Z,18.16
2023-04-11T17:24:40.671Z,18.09
2023-04-11T17:27:08.176Z,18.14
2023-04-11T17:29:35.690Z,18.05
2023-04-11T17:32:04.052Z,18.00
2023-04-11T17:34:31.779Z,17.88
2023-04-11T17:36:59.221Z,17.89
2023-04-11T17:39:26.574Z,17.87
2023-04-11T17:41:53.946Z,17.84
2023-04-11T17:44:21.520Z,17.77
2023-04-11T17:46:49.002Z,17.73
2023-04-11T17:49:16.514Z,17.68
2023-04-11T17:51:52.460Z,17.62
2023-04-11T17:54:26.117Z,17.61
2023-04-11T17:56:53.923Z,17.57
2023-04-11T17:59:21.432Z,17.57
2023-04-11T18:01:48.907Z,17.52
2023-04-11T18:04:16.522Z,17.41
2023-04-11T18:06:46.215Z,17.47
2023-04-11T18:09:15.813Z,17.36
2023-04-11T18:11:44.146Z,17.27
2023-04-11T18:14:11.767Z,17.31
2023-04-11T18:16:40.433Z,17.31
2023-04-11T18:19:08.418Z,17.27
2023-04-11T18:21:35.966Z,17.19
2023-04-11T18:24:04.167Z,17.19
2023-04-11T18:26:31.683Z,17.19
2023-04-11T18:29:00.439Z,17.11
2023-04-11T18:31:28.281Z,17.08
2023-04-11T18:33:55.984Z,16.98
2023-04-11T18:36:24.648Z,17.00
2023-04-11T18:38:53.590Z,16.97
2023-04-11T18:41:21.367Z,16.95
2023-04-11T18:43:48.901Z,16.92
2023-04-11T18:46:16.629Z,16.86
2023-04-11T18:48:44.083Z,16.76
2023-04-11T18:51:11.523Z,16.70
2023-04-11T18:53:40.055Z,16.76
2023-04-11T18:56:08.010Z,16.80
2023-04-11T18:58:39.666Z,16.82
2023-04-11T19:01:15.614Z,16.78
2023-04-11T19:03:44.952Z,16.79
2023-04-11T19:06:14.020Z,16.80
2023-04-11T19:08:41.840Z,16.62
2023-04-11T19:11:09.753Z,16.58
2023-04-11T19:13:37.722Z,16.77
2023-04-11T19:16:05.950Z,16.66
2023-04-11T19:18:34.435Z,16.73
2023-04-11T19:21:05.057Z,16.72
2023-04-11T19:23:33.982Z,16.70
2023-04-11T19:26:02.396Z,16.67
2023-04-11T19:28:30.318Z,16.51
2023-04-11T19:30:57.830Z,16.37
2023-04-11T19:33:27.015Z,16.37
2023-04-11T19:35:55.859Z,16.24
2023-04-11T19:38:23.994Z,16.16
2023-04-11T19:40:52.357Z,16.12
2023-04-11T19:43:20.373Z,15.81
2023-04-11T19:45:50.054Z,15.64
2023-04-11T19:48:18.527Z,15.60
2023-04-11T19:50:47.510Z,15.58
2023-04-11T19:53:15.212Z,15.47
2023-04-11T19:55:59.672Z,15.44
2023-04-11T19:58:27.413Z,15.40
2023-04-11T20:00:55.470Z,15.39
2023-04-11T20:03:23.142Z,15.33
2023-04-11T20:05:50.897Z,15.34
2023-04-11T20:08:18.919Z,15.34
2023-04-11T20:10:46.834Z,15.29
2023-04-11T20:13:17.303Z,15.26
2023-04-11T20:15:44.892Z,15.21
2023-04-11T20:18:12.829Z,15.14
2023-04-11T20:20:41.449Z,15.10
2023-04-11T20:23:08.872Z,15.09
2023-04-11T20:25:36.435Z,14.98
2023-04-11T20:28:03.990Z,14.99
2023-04-11T20:30:32.455Z,14.90
2023-04-11T20:33:00.024Z,14.91
2023-04-11T20:35:27.585Z,14.59
2023-04-11T20:37:58.569Z,14.71
2023-04-11T20:40:31.495Z,14.62
2023-04-11T20:43:02.087Z,14.72
2023-04-11T20:45:30.929Z,14.65
2023-04-11T20:48:01.729Z,14.52
2023-04-11T20:50:33.380Z,14.38
2023-04-11T20:53:01.648Z,14.49
2023-04-11T20:55:30.066Z,14.42
2023-04-11T20:57:57.492Z,14.35
2023-04-11T21:00:26.116Z,14.41
2023-04-11T21:02:54.334Z,14.30
2023-04-11T21:05:25.576Z,14.40
2023-04-11T21:07:54.434Z,14.27
2023-04-11T21:10:22.182Z,14.27
2023-04-11T21:12:51.763Z,14.26
2023-04-11T21:15:20.565Z,14.17
2023-04-11T21:17:48.409Z,14.17
2023-04-11T21:20:20.095Z,14.19
2023-04-11T21:22:48.032Z,14.19
2023-04-11T21:25:16.442Z,14.21
2023-04-11T21:27:43.951Z,14.20
2023-04-11T21:30:12.594Z,14.24
2023-04-11T21:32:40.628Z,14.21
2023-04-11T21:35:09.773Z,14.11
2023-04-11T21:37:37.370Z,14.20
2023-04-11T21:40:05.560Z,14.19
2023-04-11T21:42:33.060Z,14.13
2023-04-11T21:45:00.502Z,14.08
2023-04-11T21:47:27.906Z,14.03
2023-04-11T21:49:55.482Z,14.06
2023-04-11T21:52:22.882Z,14.10
2023-04-11T21:54:50.309Z,14.11
2023-04-11T21:57:17.777Z,14.10
2023-04-11T21:59:45.431Z,13.93
2023-04-11T22:02:13.206Z,13.94
2023-04-11T22:04:55.837Z,13.84
2023-04-11T22:07:32.362Z,13.82
2023-04-11T22:10:09.147Z,13.68
2023-04-11T22:12:37.314Z,13.78
2023-04-11T22:15:06.624Z,13.79
2023-04-11T22:17:34.947Z,13.79
2023-04-11T22:20:03.745Z,13.87
2023-04-11T22:22:31.174Z,13.85
2023-04-11T22:24:59.926Z,13.75
2023-04-11T22:27:27.458Z,13.76
2023-04-11T22:29:59.701Z,13.84
2023-04-11T22:32:27.299Z,13.77
2023-04-11T22:34:54.750Z,13.87
2023-04-11T22:37:22.103Z,13.80
2023-04-11T22:39:49.937Z,13.87
2023-04-11T22:42:17.391Z,13.80
2023-04-11T22:44:44.888Z,13.85
2023-04-11T22:47:13.669Z,13.79
2023-04-11T22:49:42.085Z,13.85
2023-04-11T22:52:14.074Z,13.69
2023-04-11T22:54:42.552Z,13.82
2023-04-11T22:57:10.211Z,13.86
2023-04-11T22:59:37.788Z,13.75
2023-04-11T23:02:05.682Z,13.88
2023-04-11T23:04:33.254Z,13.90
2023-04-11T23:07:00.845Z,13.77
2023-04-11T23:09:28.436Z,13.73
2023-04-11T23:11:56.003Z,13.75
2023-04-11T23:14:24.450Z,13.82
2023-04-11T23:16:51.872Z,13.87
2023-04-11T23:19:19.925Z,13.80
2023-04-11T23:21:47.490Z,13.81
2023-04-11T23:24:15.940Z,13.82
2023-04-11T23:26:43.509Z,13.81
2023-04-11T23:29:11.246Z,13.91
2023-04-11T23:31:38.750Z,13.87
2023-04-11T23:34:07.079Z,13.94
2023-04-11T23:36:34.613Z,13.97
2023-04-11T23:39:02.277Z,14.00
2023-04-11T23:41:30.347Z,14.02
2023-04-11T23:43:58.026Z,14.00
2023-04-11T23:46:26.263Z,14.06
2023-04-11T23:48:53.930Z,14.04
2023-04-11T23:51:21.629Z,13.99
2023-04-11T23:53:49.805Z,14.08
2023-04-11T23:56:17.338Z,14.04
2023-04-11T23:58:44.877Z,13.95
